Odd, WV (25902)

12:42 PM EDT on July 25, 2016 (GMT -0400)
Flat Top Lake | | Change Station

Elev 2969 ft 37.62 °N, 81.09 °W | Updated 9 minutes ago

Mostly Cloudy
Mostly Cloudy
82.9 °F
Feels Like 90 °F
N
5.8
Wind Variable Wind from WNW

Today
High -- | Low -- °F
--% Chance of Precip.
Yesterday
High -- | Low -- °F
Precip. -- in
Pressure 30.15 in
Visibility 10.0 miles
Clouds Few 2500 ft
Mostly Cloudy 3600 ft
Mostly Cloudy 5500 ft
Heat Index 90 °F
Dew Point 75 °F
Humidity 78%
Rainfall 0.00 in
Snow Depth Not available.
6:23 AM 8:38 PM
Waning Gibbous, 64% visible
SPECI KBKW 251614Z AUTO 30007KT 10SM FEW025 BKN036 BKN055 26/21 A3015 RMK AO2 TSB1553E08 T02560206
Pressure 30.15 in
Visibility 10.0 miles
Clouds Few 2500 ft
Mostly Cloudy 3600 ft
Mostly Cloudy 5500 ft
Heat Index 90 °F
Dew Point 75 °F
Humidity 78%
Rainfall 0.00 in
Snow Depth Not available.
6:23 AM 8:38 PM
Waning Gibbous, 64% visible
SPECI KBKW 251614Z AUTO 30007KT 10SM FEW025 BKN036 BKN055 26/21 A3015 RMK AO2 TSB1553E08 T02560206
Record highs are possible for parts of the Northeast Monday and Tuesday, as parts of the central U.S. take a little breather from the worst of summer's dog day heat.

Expansive high pressure in the upper atmosphere will focus on parts of the East and West this week, sending heat indices well into the triple digits from the Mid-Atlantic states into the South.

10-Day Weather Forecast

Almanac

Astronomy

Jul. 25, 2016 Rise Set
Actual Time
Civil Twilight
Nautical Twilight
Astronomical Twilight
Moon
Length of Visible Light
Length of Day
Tomorrow will be .
, % of the Moon is Illuminated

Today's Extremes

State Highs State Lows

Community

WunderPhotos

Upload Photos

1,927,349 photos uploaded!

WunderBlog® & News

Nearby

Air Quality

  Air Quality AQ Index Pollutant
Not available.

Snow Depth

Station Depth Elevation

Earthquake Activity

City Distance Mag. Time & Date
Minimum magnitude displayed is 2.5.

Coastal Water Temperatures

Place Temperature

Stations

Nearby Weather Stations

Station Location Temp. Windchill Dew Point Humidity Wind Precip. Elev Updated Type
                   

Watches & Warnings

There are currently no watches in effect.